Ashaiiu, Virginia
Current Conditions -  °F | °C
As of 10:54 PM on Monday 20 Oct 2014 (Local Time) from KOFP Reporting Station
Overcast Overcast  
Wind Chill: 55°   Ceiling: 8000
Heat Index: 55°   Visibility: 10mi
Dew Point: 46°   Wind: 0mph
Humidity: 72%   Direction: NA
Pressure: 29.98"   Gusts: NA
Location:  37.7534°N, 77.495°W
Report Text: KOFP 210254Z AUTO 00000KT 10SM OVC080 13/08 A2998 RMK AO2 SLP152 T01280078 57004
Loading
Personal Weather Stations






























Interactive Weather Map New forecast layout! Learn more

10-Day Weather Forecast

Advertisements
Track Severe Weather on mobile